Hammondsville, Vermont
Current Conditions -  °F | °C
As of 10:54 AM on Friday 21 Nov 2014 (Local Time) from KVSF Reporting Station
Overcast Overcast  
Wind Chill: 18°   Ceiling: 3800
Heat Index: 27°   Visibility: 9mi
Dew Point: 12°   Wind: 9mph
Humidity: 53%   Direction: 280°W
Pressure: 30.13"   Gusts: NA
Location:  43.4984°N, 72.5943°W
Report Text: KVSF 211554Z AUTO 28008KT 9SM OVC038 M03/M11 A3013 RMK AO2 SNB1456E50 SLP214 P0000 T10281111
Loading
Personal Weather Stations






























Interactive Weather Map New forecast layout! Learn more

10-Day Weather Forecast

Advertisements
Track Severe Weather on mobile